sensor_id;sensor_type;location;lat;lon;timestamp;temperature;humidity
55313;DHT22;46892;45.668;11.756;2024-03-07T00:00:46;9.60;85.90
55313;DHT22;46892;45.668;11.756;2024-03-07T00:03:13;9.60;85.70
55313;DHT22;46892;45.668;11.756;2024-03-07T00:05:39;9.60;85.50
55313;DHT22;46892;45.668;11.756;2024-03-07T00:08:05;9.60;85.30
55313;DHT22;46892;45.668;11.756;2024-03-07T00:10:31;9.60;85.70
55313;DHT22;46892;45.668;11.756;2024-03-07T00:12:57;9.60;86.20
55313;DHT22;46892;45.668;11.756;2024-03-07T00:15:23;9.50;86.20
55313;DHT22;46892;45.668;11.756;2024-03-07T00:17:48;9.50;86.50
55313;DHT22;46892;45.668;11.756;2024-03-07T00:20:14;9.50;86.80
55313;DHT22;46892;45.668;11.756;2024-03-07T00:22:43;9.50;86.70
55313;DHT22;46892;45.668;11.756;2024-03-07T00:25:10;9.50;87.10
55313;DHT22;46892;45.668;11.756;2024-03-07T00:27:37;9.50;87.20
55313;DHT22;46892;45.668;11.756;2024-03-07T00:30:05;9.50;87.00
55313;DHT22;46892;45.668;11.756;2024-03-07T00:32:31;9.50;87.40
55313;DHT22;46892;45.668;11.756;2024-03-07T00:35:01;9.50;86.90
55313;DHT22;46892;45.668;11.756;2024-03-07T00:37:28;9.50;87.00
55313;DHT22;46892;45.668;11.756;2024-03-07T00:39:54;9.50;86.90
55313;DHT22;46892;45.668;11.756;2024-03-07T00:42:20;9.50;87.00
55313;DHT22;46892;45.668;11.756;2024-03-07T00:44:47;9.60;87.30
55313;DHT22;46892;45.668;11.756;2024-03-07T00:47:14;9.60;87.00
55313;DHT22;46892;45.668;11.756;2024-03-07T00:49:39;9.60;86.90
55313;DHT22;46892;45.668;11.756;2024-03-07T00:52:05;9.60;86.90
55313;DHT22;46892;45.668;11.756;2024-03-07T00:54:31;9.60;86.70
55313;DHT22;46892;45.668;11.756;2024-03-07T00:56:57;9.60;86.80
55313;DHT22;46892;45.668;11.756;2024-03-07T00:59:22;9.60;86.80
55313;DHT22;46892;45.668;11.756;2024-03-07T01:01:48;9.60;86.30
55313;DHT22;46892;45.668;11.756;2024-03-07T01:04:14;9.50;86.30
55313;DHT22;46892;45.668;11.756;2024-03-07T01:06:40;9.50;86.20
55313;DHT22;46892;45.668;11.756;2024-03-07T01:09:06;9.50;85.60
55313;DHT22;46892;45.668;11.756;2024-03-07T01:11:42;9.40;85.30
55313;DHT22;46892;45.668;11.756;2024-03-07T01:14:08;9.40;84.80
55313;DHT22;46892;45.668;11.756;2024-03-07T01:16:34;9.30;86.00
55313;DHT22;46892;45.668;11.756;2024-03-07T01:19:00;9.30;85.60
55313;DHT22;46892;45.668;11.756;2024-03-07T01:21:26;9.20;85.60
55313;DHT22;46892;45.668;11.756;2024-03-07T01:23:52;9.10;86.00
55313;DHT22;46892;45.668;11.756;2024-03-07T01:26:17;9.20;86.20
55313;DHT22;46892;45.668;11.756;2024-03-07T01:28:43;9.20;86.20
55313;DHT22;46892;45.668;11.756;2024-03-07T01:31:09;9.20;86.60
55313;DHT22;46892;45.668;11.756;2024-03-07T01:33:35;9.20;86.40
55313;DHT22;46892;45.668;11.756;2024-03-07T01:36:01;9.20;86.40
55313;DHT22;46892;45.668;11.756;2024-03-07T01:38:27;9.20;86.80
55313;DHT22;46892;45.668;11.756;2024-03-07T01:40:53;9.20;86.40
55313;DHT22;46892;45.668;11.756;2024-03-07T01:43:20;9.20;86.70
55313;DHT22;46892;45.668;11.756;2024-03-07T01:45:47;9.20;86.70
55313;DHT22;46892;45.668;11.756;2024-03-07T01:48:18;9.20;86.60
55313;DHT22;46892;45.668;11.756;2024-03-07T01:50:47;9.10;86.20
55313;DHT22;46892;45.668;11.756;2024-03-07T01:53:14;9.10;86.50
55313;DHT22;46892;45.668;11.756;2024-03-07T01:55:40;9.10;87.00
55313;DHT22;46892;45.668;11.756;2024-03-07T01:58:08;9.10;87.00
55313;DHT22;46892;45.668;11.756;2024-03-07T02:00:35;9.20;88.00
55313;DHT22;46892;45.668;11.756;2024-03-07T02:03:01;9.30;87.70
55313;DHT22;46892;45.668;11.756;2024-03-07T02:05:26;9.30;87.30
55313;DHT22;46892;45.668;11.756;2024-03-07T02:07:52;9.30;87.80
55313;DHT22;46892;45.668;11.756;2024-03-07T02:10:18;9.40;87.30
55313;DHT22;46892;45.668;11.756;2024-03-07T02:12:44;9.30;86.90
55313;DHT22;46892;45.668;11.756;2024-03-07T02:15:10;9.30;87.30
55313;DHT22;46892;45.668;11.756;2024-03-07T02:17:37;9.30;87.40
55313;DHT22;46892;45.668;11.756;2024-03-07T02:20:04;9.10;86.80
55313;DHT22;46892;45.668;11.756;2024-03-07T02:22:33;9.00;87.20
55313;DHT22;46892;45.668;11.756;2024-03-07T02:24:59;8.90;87.60
55313;DHT22;46892;45.668;11.756;2024-03-07T02:27:24;8.80;87.80
55313;DHT22;46892;45.668;11.756;2024-03-07T02:29:50;8.80;88.10
55313;DHT22;46892;45.668;11.756;2024-03-07T02:32:16;8.70;88.40
55313;DHT22;46892;45.668;11.756;2024-03-07T02:34:43;8.70;88.80
55313;DHT22;46892;45.668;11.756;2024-03-07T02:37:09;8.70;89.10
55313;DHT22;46892;45.668;11.756;2024-03-07T02:39:36;8.60;89.40
55313;DHT22;46892;45.668;11.756;2024-03-07T02:42:02;8.60;89.40
55313;DHT22;46892;45.668;11.756;2024-03-07T02:44:28;8.60;89.50
55313;DHT22;46892;45.668;11.756;2024-03-07T02:46:54;8.60;89.50
55313;DHT22;46892;45.668;11.756;2024-03-07T02:49:20;8.70;89.60
55313;DHT22;46892;45.668;11.756;2024-03-07T02:51:47;8.70;89.50
55313;DHT22;46892;45.668;11.756;2024-03-07T02:54:12;8.80;89.40
55313;DHT22;46892;45.668;11.756;2024-03-07T02:56:38;8.80;89.30
55313;DHT22;46892;45.668;11.756;2024-03-07T02:59:04;8.80;89.20
55313;DHT22;46892;45.668;11.756;2024-03-07T03:01:29;8.90;89.20
55313;DHT22;46892;45.668;11.756;2024-03-07T03:03:55;9.00;89.00
55313;DHT22;46892;45.668;11.756;2024-03-07T03:06:21;9.00;88.80
55313;DHT22;46892;45.668;11.756;2024-03-07T03:08:47;9.00;88.70
55313;DHT22;46892;45.668;11.756;2024-03-07T03:11:13;8.90;88.80
55313;DHT22;46892;45.668;11.756;2024-03-07T03:13:42;8.90;89.30
55313;DHT22;46892;45.668;11.756;2024-03-07T03:16:08;8.90;89.30
55313;DHT22;46892;45.668;11.756;2024-03-07T03:18:35;8.90;88.80
55313;DHT22;46892;45.668;11.756;2024-03-07T03:21:01;8.80;88.90
55313;DHT22;46892;45.668;11.756;2024-03-07T03:23:30;8.90;88.90
55313;DHT22;46892;45.668;11.756;2024-03-07T03:25:56;8.90;89.00
55313;DHT22;46892;45.668;11.756;2024-03-07T03:28:22;8.90;89.00
55313;DHT22;46892;45.668;11.756;2024-03-07T03:30:49;8.90;89.20
55313;DHT22;46892;45.668;11.756;2024-03-07T03:33:18;9.00;89.20
55313;DHT22;46892;45.668;11.756;2024-03-07T03:35:46;8.90;89.40
55313;DHT22;46892;45.668;11.756;2024-03-07T03:38:12;9.00;89.40
55313;DHT22;46892;45.668;11.756;2024-03-07T03:40:38;8.90;89.40
55313;DHT22;46892;45.668;11.756;2024-03-07T03:43:03;8.90;89.60
55313;DHT22;46892;45.668;11.756;2024-03-07T03:45:29;8.80;89.90
55313;DHT22;46892;45.668;11.756;2024-03-07T03:47:57;8.80;90.10
55313;DHT22;46892;45.668;11.756;2024-03-07T03:50:23;8.70;90.30
55313;DHT22;46892;45.668;11.756;2024-03-07T03:52:49;8.70;90.40
55313;DHT22;46892;45.668;11.756;2024-03-07T03:55:15;8.70;90.50
55313;DHT22;46892;45.668;11.756;2024-03-07T03:57:43;8.70;90.70
55313;DHT22;46892;45.668;11.756;2024-03-07T04:00:10;8.80;90.50
55313;DHT22;46892;45.668;11.756;2024-03-07T04:02:43;8.80;90.50
55313;DHT22;46892;45.668;11.756;2024-03-07T04:05:10;8.90;90.50
55313;DHT22;46892;45.668;11.756;2024-03-07T04:07:40;8.90;90.60
55313;DHT22;46892;45.668;11.756;2024-03-07T04:10:08;8.90;90.30
55313;DHT22;46892;45.668;11.756;2024-03-07T04:12:37;8.90;90.40
55313;DHT22;46892;45.668;11.756;2024-03-07T04:15:06;8.90;90.60
55313;DHT22;46892;45.668;11.756;2024-03-07T04:17:33;8.90;90.20
55313;DHT22;46892;45.668;11.756;2024-03-07T04:20:00;8.90;90.30
55313;DHT22;46892;45.668;11.756;2024-03-07T04:22:26;8.90;90.50
55313;DHT22;46892;45.668;11.756;2024-03-07T04:24:52;8.90;90.30
55313;DHT22;46892;45.668;11.756;2024-03-07T04:27:20;8.90;90.20
55313;DHT22;46892;45.668;11.756;2024-03-07T04:29:49;8.90;90.20
55313;DHT22;46892;45.668;11.756;2024-03-07T04:32:15;8.90;90.30
55313;DHT22;46892;45.668;11.756;2024-03-07T04:34:40;8.90;90.20
55313;DHT22;46892;45.668;11.756;2024-03-07T04:37:06;8.90;90.10
55313;DHT22;46892;45.668;11.756;2024-03-07T04:39:32;9.00;90.00
55313;DHT22;46892;45.668;11.756;2024-03-07T04:44:30;9.00;89.60
55313;DHT22;46892;45.668;11.756;2024-03-07T04:46:59;9.10;89.60
55313;DHT22;46892;45.668;11.756;2024-03-07T04:49:28;9.10;89.50
55313;DHT22;46892;45.668;11.756;2024-03-07T04:51:55;9.10;89.60
55313;DHT22;46892;45.668;11.756;2024-03-07T04:54:22;9.10;89.50
55313;DHT22;46892;45.668;11.756;2024-03-07T04:56:49;9.00;89.50
55313;DHT22;46892;45.668;11.756;2024-03-07T04:59:15;9.10;89.50
55313;DHT22;46892;45.668;11.756;2024-03-07T05:01:42;9.10;89.30
55313;DHT22;46892;45.668;11.756;2024-03-07T05:04:08;9.10;89.30
55313;DHT22;46892;45.668;11.756;2024-03-07T05:06:34;9.10;89.30
55313;DHT22;46892;45.668;11.756;2024-03-07T05:09:01;9.10;89.30
55313;DHT22;46892;45.668;11.756;2024-03-07T05:11:30;9.20;89.30
55313;DHT22;46892;45.668;11.756;2024-03-07T05:13:59;9.20;89.20
55313;DHT22;46892;45.668;11.756;2024-03-07T05:16:30;9.20;89.20
55313;DHT22;46892;45.668;11.756;2024-03-07T05:18:56;9.20;89.20
55313;DHT22;46892;45.668;11.756;2024-03-07T05:21:28;9.20;89.10
55313;DHT22;46892;45.668;11.756;2024-03-07T05:24:00;9.20;89.10
55313;DHT22;46892;45.668;11.756;2024-03-07T05:26:26;9.20;89.00
55313;DHT22;46892;45.668;11.756;2024-03-07T05:28:53;9.30;89.00
55313;DHT22;46892;45.668;11.756;2024-03-07T05:31:21;9.20;89.00
55313;DHT22;46892;45.668;11.756;2024-03-07T05:33:47;9.20;88.90
55313;DHT22;46892;45.668;11.756;2024-03-07T05:36:13;9.30;88.90
55313;DHT22;46892;45.668;11.756;2024-03-07T05:38:43;9.20;89.00
55313;DHT22;46892;45.668;11.756;2024-03-07T05:41:10;9.20;89.00
55313;DHT22;46892;45.668;11.756;2024-03-07T05:43:36;9.20;89.00
55313;DHT22;46892;45.668;11.756;2024-03-07T05:46:02;9.20;88.90
55313;DHT22;46892;45.668;11.756;2024-03-07T05:48:30;9.20;89.00
55313;DHT22;46892;45.668;11.756;2024-03-07T05:50:57;9.20;89.10
55313;DHT22;46892;45.668;11.756;2024-03-07T05:53:23;9.30;89.60
55313;DHT22;46892;45.668;11.756;2024-03-07T05:55:49;9.30;90.10
55313;DHT22;46892;45.668;11.756;2024-03-07T05:58:15;9.40;90.00
55313;DHT22;46892;45.668;11.756;2024-03-07T06:00:43;9.30;89.70
55313;DHT22;46892;45.668;11.756;2024-03-07T06:03:13;9.30;89.20
55313;DHT22;46892;45.668;11.756;2024-03-07T06:05:41;9.30;89.10
55313;DHT22;46892;45.668;11.756;2024-03-07T06:08:08;9.30;89.00
55313;DHT22;46892;45.668;11.756;2024-03-07T06:10:34;9.30;89.00
55313;DHT22;46892;45.668;11.756;2024-03-07T06:13:00;9.30;88.90
55313;DHT22;46892;45.668;11.756;2024-03-07T06:15:26;9.30;88.90
55313;DHT22;46892;45.668;11.756;2024-03-07T06:17:52;9.30;89.90
55313;DHT22;46892;45.668;11.756;2024-03-07T06:20:17;9.30;89.50
55313;DHT22;46892;45.668;11.756;2024-03-07T06:22:50;9.30;89.30
55313;DHT22;46892;45.668;11.756;2024-03-07T06:25:18;9.20;89.40
55313;DHT22;46892;45.668;11.756;2024-03-07T06:28:08;9.20;89.50
55313;DHT22;46892;45.668;11.756;2024-03-07T06:30:43;9.30;89.20
55313;DHT22;46892;45.668;11.756;2024-03-07T06:33:11;9.30;89.10
55313;DHT22;46892;45.668;11.756;2024-03-07T06:35:37;9.20;89.10
55313;DHT22;46892;45.668;11.756;2024-03-07T06:38:10;9.20;89.50
55313;DHT22;46892;45.668;11.756;2024-03-07T06:40:40;9.20;89.70
55313;DHT22;46892;45.668;11.756;2024-03-07T06:43:06;9.30;89.20
55313;DHT22;46892;45.668;11.756;2024-03-07T06:45:35;9.30;89.10
55313;DHT22;46892;45.668;11.756;2024-03-07T06:48:06;9.20;89.20
55313;DHT22;46892;45.668;11.756;2024-03-07T06:50:36;9.20;89.30
55313;DHT22;46892;45.668;11.756;2024-03-07T06:53:05;9.30;89.40
55313;DHT22;46892;45.668;11.756;2024-03-07T06:55:32;9.20;89.60
55313;DHT22;46892;45.668;11.756;2024-03-07T06:58:01;9.20;89.60
55313;DHT22;46892;45.668;11.756;2024-03-07T07:00:30;9.20;89.70
55313;DHT22;46892;45.668;11.756;2024-03-07T07:03:00;9.20;89.80
55313;DHT22;46892;45.668;11.756;2024-03-07T07:05:29;9.30;89.80
55313;DHT22;46892;45.668;11.756;2024-03-07T07:07:55;9.30;89.70
55313;DHT22;46892;45.668;11.756;2024-03-07T07:10:21;9.30;89.70
55313;DHT22;46892;45.668;11.756;2024-03-07T07:12:50;9.30;89.50
55313;DHT22;46892;45.668;11.756;2024-03-07T07:15:18;9.30;89.30
55313;DHT22;46892;45.668;11.756;2024-03-07T07:17:47;9.40;88.90
55313;DHT22;46892;45.668;11.756;2024-03-07T07:20:16;9.50;88.70
55313;DHT22;46892;45.668;11.756;2024-03-07T07:22:46;9.50;88.80
55313;DHT22;46892;45.668;11.756;2024-03-07T07:25:16;9.50;88.90
55313;DHT22;46892;45.668;11.756;2024-03-07T07:27:46;9.50;89.00
55313;DHT22;46892;45.668;11.756;2024-03-07T07:30:14;9.60;89.00
55313;DHT22;46892;45.668;11.756;2024-03-07T07:32:41;9.70;89.10
55313;DHT22;46892;45.668;11.756;2024-03-07T07:35:07;9.70;88.90
55313;DHT22;46892;45.668;11.756;2024-03-07T07:37:38;9.70;88.50
55313;DHT22;46892;45.668;11.756;2024-03-07T07:40:04;9.80;88.60
55313;DHT22;46892;45.668;11.756;2024-03-07T07:42:33;9.80;88.10
55313;DHT22;46892;45.668;11.756;2024-03-07T07:45:00;9.80;87.90
55313;DHT22;46892;45.668;11.756;2024-03-07T07:47:26;9.70;88.20
55313;DHT22;46892;45.668;11.756;2024-03-07T07:49:52;9.70;88.30
55313;DHT22;46892;45.668;11.756;2024-03-07T07:52:17;9.70;88.20
55313;DHT22;46892;45.668;11.756;2024-03-07T07:54:43;9.70;88.30
55313;DHT22;46892;45.668;11.756;2024-03-07T07:57:09;9.80;88.40
55313;DHT22;46892;45.668;11.756;2024-03-07T07:59:34;9.80;87.90
55313;DHT22;46892;45.668;11.756;2024-03-07T08:02:02;9.80;87.90
55313;DHT22;46892;45.668;11.756;2024-03-07T08:04:29;9.80;87.90
55313;DHT22;46892;45.668;11.756;2024-03-07T08:06:55;9.80;87.90
55313;DHT22;46892;45.668;11.756;2024-03-07T08:09:20;9.80;87.70
55313;DHT22;46892;45.668;11.756;2024-03-07T08:11:46;9.90;87.80
55313;DHT22;46892;45.668;11.756;2024-03-07T08:14:15;9.90;87.80
55313;DHT22;46892;45.668;11.756;2024-03-07T08:16:41;10.00;87.90
55313;DHT22;46892;45.668;11.756;2024-03-07T08:19:07;10.00;88.10
55313;DHT22;46892;45.668;11.756;2024-03-07T08:21:35;10.00;88.20
55313;DHT22;46892;45.668;11.756;2024-03-07T08:24:03;10.00;88.40
55313;DHT22;46892;45.668;11.756;2024-03-07T08:26:36;10.10;88.40
55313;DHT22;46892;45.668;11.756;2024-03-07T08:29:02;10.10;88.60
55313;DHT22;46892;45.668;11.756;2024-03-07T08:31:28;10.10;88.80
55313;DHT22;46892;45.668;11.756;2024-03-07T08:33:54;10.20;88.70
55313;DHT22;46892;45.668;11.756;2024-03-07T08:36:20;10.20;88.60
55313;DHT22;46892;45.668;11.756;2024-03-07T08:38:45;10.20;88.40
55313;DHT22;46892;45.668;11.756;2024-03-07T08:41:12;10.20;88.40
55313;DHT22;46892;45.668;11.756;2024-03-07T08:43:37;10.20;88.70
55313;DHT22;46892;45.668;11.756;2024-03-07T08:46:03;10.20;88.50
55313;DHT22;46892;45.668;11.756;2024-03-07T08:48:29;10.20;88.50
55313;DHT22;46892;45.668;11.756;2024-03-07T08:50:54;10.20;88.50
55313;DHT22;46892;45.668;11.756;2024-03-07T08:53:20;10.20;88.20
55313;DHT22;46892;45.668;11.756;2024-03-07T08:55:46;10.10;86.80
55313;DHT22;46892;45.668;11.756;2024-03-07T08:58:11;10.10;86.40
55313;DHT22;46892;45.668;11.756;2024-03-07T09:00:37;10.10;86.30
55313;DHT22;46892;45.668;11.756;2024-03-07T09:03:03;10.10;86.00
55313;DHT22;46892;45.668;11.756;2024-03-07T09:05:30;10.10;85.80
55313;DHT22;46892;45.668;11.756;2024-03-07T09:07:59;10.10;86.10
55313;DHT22;46892;45.668;11.756;2024-03-07T09:10:24;10.20;86.40
55313;DHT22;46892;45.668;11.756;2024-03-07T09:12:51;10.20;86.80
55313;DHT22;46892;45.668;11.756;2024-03-07T09:15:18;10.30;86.70
55313;DHT22;46892;45.668;11.756;2024-03-07T09:17:44;10.30;86.10
55313;DHT22;46892;45.668;11.756;2024-03-07T09:20:12;10.20;86.50
55313;DHT22;46892;45.668;11.756;2024-03-07T09:22:44;10.20;86.50
55313;DHT22;46892;45.668;11.756;2024-03-07T09:25:10;10.10;86.30
55313;DHT22;46892;45.668;11.756;2024-03-07T09:27:38;10.20;85.90
55313;DHT22;46892;45.668;11.756;2024-03-07T09:30:07;10.20;86.50
55313;DHT22;46892;45.668;11.756;2024-03-07T09:32:40;10.20;86.60
55313;DHT22;46892;45.668;11.756;2024-03-07T09:35:07;10.30;86.30
55313;DHT22;46892;45.668;11.756;2024-03-07T09:37:33;10.20;86.70
55313;DHT22;46892;45.668;11.756;2024-03-07T09:39:59;10.30;86.50
55313;DHT22;46892;45.668;11.756;2024-03-07T09:42:26;10.40;85.40
55313;DHT22;46892;45.668;11.756;2024-03-07T09:44:54;10.40;83.80
55313;DHT22;46892;45.668;11.756;2024-03-07T09:47:20;10.40;84.20
55313;DHT22;46892;45.668;11.756;2024-03-07T09:49:46;10.40;84.60
55313;DHT22;46892;45.668;11.756;2024-03-07T09:52:14;10.30;83.50
55313;DHT22;46892;45.668;11.756;2024-03-07T09:54:42;10.30;83.50
55313;DHT22;46892;45.668;11.756;2024-03-07T09:57:07;10.20;83.90
55313;DHT22;46892;45.668;11.756;2024-03-07T09:59:37;10.10;83.90
55313;DHT22;46892;45.668;11.756;2024-03-07T10:02:06;10.10;83.70
55313;DHT22;46892;45.668;11.756;2024-03-07T10:04:53;10.00;84.50
55313;DHT22;46892;45.668;11.756;2024-03-07T10:07:19;10.00;84.00
55313;DHT22;46892;45.668;11.756;2024-03-07T10:09:45;10.00;84.00
55313;DHT22;46892;45.668;11.756;2024-03-07T10:12:11;10.00;84.20
55313;DHT22;46892;45.668;11.756;2024-03-07T10:14:51;10.00;84.50
55313;DHT22;46892;45.668;11.756;2024-03-07T10:17:26;10.10;83.90
55313;DHT22;46892;45.668;11.756;2024-03-07T10:19:52;10.10;83.20
55313;DHT22;46892;45.668;11.756;2024-03-07T10:22:20;10.10;84.10
55313;DHT22;46892;45.668;11.756;2024-03-07T10:24:52;10.10;84.90
55313;DHT22;46892;45.668;11.756;2024-03-07T10:27:22;10.10;85.10
55313;DHT22;46892;45.668;11.756;2024-03-07T10:29:48;10.10;84.50
55313;DHT22;46892;45.668;11.756;2024-03-07T10:32:25;10.10;84.60
55313;DHT22;46892;45.668;11.756;2024-03-07T10:34:52;10.20;84.90
55313;DHT22;46892;45.668;11.756;2024-03-07T10:37:18;10.20;85.10
55313;DHT22;46892;45.668;11.756;2024-03-07T10:39:49;10.20;85.10
55313;DHT22;46892;45.668;11.756;2024-03-07T10:42:16;10.20;84.50
55313;DHT22;46892;45.668;11.756;2024-03-07T10:44:48;10.20;84.30
55313;DHT22;46892;45.668;11.756;2024-03-07T10:47:20;10.20;84.30
55313;DHT22;46892;45.668;11.756;2024-03-07T10:50:19;10.20;84.10
55313;DHT22;46892;45.668;11.756;2024-03-07T10:58:02;10.30;82.90
55313;DHT22;46892;45.668;11.756;2024-03-07T11:00:33;10.20;83.30
55313;DHT22;46892;45.668;11.756;2024-03-07T11:03:02;10.20;82.60
55313;DHT22;46892;45.668;11.756;2024-03-07T11:05:33;10.20;82.70
55313;DHT22;46892;45.668;11.756;2024-03-07T11:08:00;10.10;82.80
55313;DHT22;46892;45.668;11.756;2024-03-07T11:10:30;10.20;83.20
55313;DHT22;46892;45.668;11.756;2024-03-07T11:12:57;10.30;83.50
55313;DHT22;46892;45.668;11.756;2024-03-07T11:15:24;10.20;83.60
55313;DHT22;46892;45.668;11.756;2024-03-07T11:17:54;10.20;84.60
55313;DHT22;46892;45.668;11.756;2024-03-07T11:20:21;10.20;83.50
55313;DHT22;46892;45.668;11.756;2024-03-07T11:22:47;10.20;83.40
55313;DHT22;46892;45.668;11.756;2024-03-07T11:25:18;10.20;82.80
55313;DHT22;46892;45.668;11.756;2024-03-07T11:27:58;10.20;82.90
55313;DHT22;46892;45.668;11.756;2024-03-07T11:30:25;10.20;82.60
55313;DHT22;46892;45.668;11.756;2024-03-07T11:32:52;10.20;82.80
55313;DHT22;46892;45.668;11.756;2024-03-07T11:35:31;10.30;83.00
55313;DHT22;46892;45.668;11.756;2024-03-07T11:37:59;10.30;82.60
55313;DHT22;46892;45.668;11.756;2024-03-07T11:42:52;10.30;81.40
55313;DHT22;46892;45.668;11.756;2024-03-07T11:45:20;10.30;82.20
55313;DHT22;46892;45.668;11.756;2024-03-07T11:47:54;10.40;81.70
55313;DHT22;46892;45.668;11.756;2024-03-07T11:50:30;10.30;80.20
55313;DHT22;46892;45.668;11.756;2024-03-07T11:53:00;10.30;81.50
55313;DHT22;46892;45.668;11.756;2024-03-07T11:55:27;10.30;81.00
55313;DHT22;46892;45.668;11.756;2024-03-07T11:57:59;10.50;79.50
55313;DHT22;46892;45.668;11.756;2024-03-07T12:00:26;10.50;80.40
55313;DHT22;46892;45.668;11.756;2024-03-07T12:02:55;10.50;79.40
55313;DHT22;46892;45.668;11.756;2024-03-07T12:05:21;10.60;79.40
55313;DHT22;46892;45.668;11.756;2024-03-07T12:07:46;10.60;78.50
55313;DHT22;46892;45.668;11.756;2024-03-07T12:10:15;10.70;78.70
55313;DHT22;46892;45.668;11.756;2024-03-07T12:12:42;10.70;77.90
55313;DHT22;46892;45.668;11.756;2024-03-07T12:15:09;10.70;77.00
55313;DHT22;46892;45.668;11.756;2024-03-07T12:17:42;10.80;76.20
55313;DHT22;46892;45.668;11.756;2024-03-07T12:20:08;10.80;75.80
55313;DHT22;46892;45.668;11.756;2024-03-07T12:22:51;10.80;75.70
55313;DHT22;46892;45.668;11.756;2024-03-07T12:25:20;11.00;76.10
55313;DHT22;46892;45.668;11.756;2024-03-07T12:28:06;11.00;74.20
55313;DHT22;46892;45.668;11.756;2024-03-07T12:30:51;11.10;74.00
55313;DHT22;46892;45.668;11.756;2024-03-07T12:33:17;11.10;72.80
55313;DHT22;46892;45.668;11.756;2024-03-07T12:35:44;11.20;72.20
55313;DHT22;46892;45.668;11.756;2024-03-07T12:38:10;11.20;72.20
55313;DHT22;46892;45.668;11.756;2024-03-07T12:40:39;11.30;71.00
55313;DHT22;46892;45.668;11.756;2024-03-07T12:43:21;11.30;71.50
55313;DHT22;46892;45.668;11.756;2024-03-07T12:45:51;11.40;71.80
55313;DHT22;46892;45.668;11.756;2024-03-07T12:48:20;11.50;73.90
55313;DHT22;46892;45.668;11.756;2024-03-07T12:50:49;11.50;70.50
55313;DHT22;46892;45.668;11.756;2024-03-07T12:53:24;11.50;69.60
55313;DHT22;46892;45.668;11.756;2024-03-07T12:55:54;11.50;69.40
55313;DHT22;46892;45.668;11.756;2024-03-07T12:58:20;11.50;69.70
55313;DHT22;46892;45.668;11.756;2024-03-07T13:00:54;11.50;71.20
55313;DHT22;46892;45.668;11.756;2024-03-07T13:03:24;11.50;70.40
55313;DHT22;46892;45.668;11.756;2024-03-07T13:05:56;11.40;68.50
55313;DHT22;46892;45.668;11.756;2024-03-07T13:08:26;11.40;67.90
55313;DHT22;46892;45.668;11.756;2024-03-07T13:10:53;11.40;67.60
55313;DHT22;46892;45.668;11.756;2024-03-07T13:13:20;11.50;66.20
55313;DHT22;46892;45.668;11.756;2024-03-07T13:15:46;11.60;68.70
55313;DHT22;46892;45.668;11.756;2024-03-07T13:18:13;11.60;71.40
55313;DHT22;46892;45.668;11.756;2024-03-07T13:20:39;11.80;73.40
55313;DHT22;46892;45.668;11.756;2024-03-07T13:23:08;11.80;72.90
55313;DHT22;46892;45.668;11.756;2024-03-07T13:25:35;11.80;69.40
55313;DHT22;46892;45.668;11.756;2024-03-07T13:28:05;11.80;68.20
55313;DHT22;46892;45.668;11.756;2024-03-07T13:30:37;11.80;66.10
55313;DHT22;46892;45.668;11.756;2024-03-07T13:33:03;11.80;67.70
55313;DHT22;46892;45.668;11.756;2024-03-07T13:35:29;11.80;70.00
55313;DHT22;46892;45.668;11.756;2024-03-07T13:37:56;11.80;68.60
55313;DHT22;46892;45.668;11.756;2024-03-07T13:40:23;11.80;68.00
55313;DHT22;46892;45.668;11.756;2024-03-07T13:45:20;11.70;67.80
55313;DHT22;46892;45.668;11.756;2024-03-07T13:47:47;11.60;67.20
55313;DHT22;46892;45.668;11.756;2024-03-07T13:50:18;11.70;67.90
55313;DHT22;46892;45.668;11.756;2024-03-07T13:52:46;11.70;67.70
55313;DHT22;46892;45.668;11.756;2024-03-07T13:55:32;11.80;69.10
55313;DHT22;46892;45.668;11.756;2024-03-07T13:58:04;11.80;68.00
55313;DHT22;46892;45.668;11.756;2024-03-07T14:00:55;11.80;68.20
55313;DHT22;46892;45.668;11.756;2024-03-07T14:06:42;11.80;68.30
55313;DHT22;46892;45.668;11.756;2024-03-07T14:32:03;12.00;72.70
55313;DHT22;46892;45.668;11.756;2024-03-07T14:37:27;12.10;75.20
55313;DHT22;46892;45.668;11.756;2024-03-07T14:40:09;12.00;75.70
55313;DHT22;46892;45.668;11.756;2024-03-07T14:42:39;11.90;76.50
55313;DHT22;46892;45.668;11.756;2024-03-07T14:45:07;11.90;76.20
55313;DHT22;46892;45.668;11.756;2024-03-07T14:47:35;11.90;76.10
55313;DHT22;46892;45.668;11.756;2024-03-07T14:50:01;11.90;76.30
55313;DHT22;46892;45.668;11.756;2024-03-07T14:52:27;11.80;76.50
55313;DHT22;46892;45.668;11.756;2024-03-07T14:54:55;11.80;76.10
55313;DHT22;46892;45.668;11.756;2024-03-07T14:57:21;11.80;77.10
55313;DHT22;46892;45.668;11.756;2024-03-07T14:59:46;11.80;76.60
55313;DHT22;46892;45.668;11.756;2024-03-07T15:02:13;11.80;76.60
55313;DHT22;46892;45.668;11.756;2024-03-07T15:04:40;11.80;74.90
55313;DHT22;46892;45.668;11.756;2024-03-07T15:07:07;11.80;75.90
55313;DHT22;46892;45.668;11.756;2024-03-07T15:09:35;11.70;76.60
55313;DHT22;46892;45.668;11.756;2024-03-07T15:12:02;11.70;77.10
55313;DHT22;46892;45.668;11.756;2024-03-07T15:14:28;11.70;77.70
55313;DHT22;46892;45.668;11.756;2024-03-07T15:16:53;11.70;78.40
55313;DHT22;46892;45.668;11.756;2024-03-07T15:19:19;11.70;78.70
55313;DHT22;46892;45.668;11.756;2024-03-07T15:21:45;11.60;78.80
55313;DHT22;46892;45.668;11.756;2024-03-07T15:24:13;11.60;78.80
55313;DHT22;46892;45.668;11.756;2024-03-07T15:26:39;11.60;78.20
55313;DHT22;46892;45.668;11.756;2024-03-07T15:29:04;11.60;77.50
55313;DHT22;46892;45.668;11.756;2024-03-07T15:31:30;11.60;77.90
55313;DHT22;46892;45.668;11.756;2024-03-07T15:33:56;11.50;77.80
55313;DHT22;46892;45.668;11.756;2024-03-07T15:36:22;11.50;78.10
55313;DHT22;46892;45.668;11.756;2024-03-07T15:38:48;11.40;78.30
55313;DHT22;46892;45.668;11.756;2024-03-07T15:41:14;11.40;78.00
55313;DHT22;46892;45.668;11.756;2024-03-07T15:43:43;11.40;77.80
55313;DHT22;46892;45.668;11.756;2024-03-07T15:46:15;11.40;78.00
55313;DHT22;46892;45.668;11.756;2024-03-07T15:48:46;11.40;78.60
55313;DHT22;46892;45.668;11.756;2024-03-07T15:51:15;11.40;79.30
55313;DHT22;46892;45.668;11.756;2024-03-07T15:53:41;11.50;79.80
55313;DHT22;46892;45.668;11.756;2024-03-07T15:56:07;11.50;80.10
55313;DHT22;46892;45.668;11.756;2024-03-07T15:58:34;11.50;80.50
55313;DHT22;46892;45.668;11.756;2024-03-07T16:00:59;11.50;80.80
55313;DHT22;46892;45.668;11.756;2024-03-07T16:03:26;11.50;81.10
55313;DHT22;46892;45.668;11.756;2024-03-07T16:05:51;11.40;81.20
55313;DHT22;46892;45.668;11.756;2024-03-07T16:08:18;11.40;81.20
55313;DHT22;46892;45.668;11.756;2024-03-07T16:10:44;11.40;81.20